Weems, Virginia
Current Conditions -  °F | °C
As of 11:15 PM on Wednesday 28 Jan 2015 (Local Time) from KW75 Reporting Station
Clear Clear  
Wind Chill: 23°   Ceiling: Unl
Heat Index: 30°   Visibility: 10mi
Dew Point: 10°   Wind: 7mph
Humidity: 44%   Direction: 340°NNW
Pressure: 30.33"   Gusts: NA
Location:  37.65°N, 76.44°W
Report Text: KW75 290415Z AUTO 34006KT 10SM CLR M01/M12 A3033 RMK AO1 T10111121
Loading
Personal Weather Stations






























Interactive Weather Map New forecast layout! Learn more

10-Day Weather Forecast

Advertisements
Track Severe Weather on mobile